Time;durP1;ratioP1;P1;durP2;ratioP2;P2;SDS_P1;SDS_P2;PMS_P1;PMS_P2;Temp;Humidity;BMP_temperature;BMP_pressure;BME280_temperature;BME280_humidity;BME280_pressure;Samples;Min_cycle;Max_cycle;Signal;HPM_P1;HPM_P2
2022/12/09 00:00:22;;;;;;;46.93;6.90;;;;;;;16.06;nan;99861.16;6055873;23;20719;-93
2022/12/09 00:02:59;;;;;;;39.07;6.17;;;;;;;16.09;nan;99867.03;6079641;23;20529;-92
2022/12/09 00:05:37;;;;;;;45.10;6.50;;;;;;;16.06;nan;99841.88;6103224;23;20457;-92
2022/12/09 00:08:05;;;;;;;37.37;5.70;;;;;;;16.09;nan;99855.16;6055803;23;20470;-92
2022/12/09 00:10:44;;;;;;;35.80;5.47;;;;;;;16.08;nan;99848.81;6055361;23;20473;-93
2022/12/09 00:13:13;;;;;;;45.30;6.57;;;;;;;16.07;nan;99844.38;6078893;23;20386;-93
2022/12/09 00:15:42;;;;;;;39.67;5.53;;;;;;;16.09;nan;99833.94;6078993;23;20509;-92
2022/12/09 00:18:19;;;;;;;42.90;6.60;;;;;;;16.12;nan;99827.09;6079191;23;20457;-92
2022/12/09 00:24:28;;;;;;;37.90;6.10;;;;;;;16.07;nan;99818.72;6128007;23;20364;-90
2022/12/09 00:27:03;;;;;;;32.13;5.77;;;;;;;16.08;nan;99812.97;6102832;23;20992;-92
2022/12/09 00:29:35;;;;;;;42.93;6.70;;;;;;;16.11;nan;99820.75;6055618;23;20389;-92
2022/12/09 00:32:05;;;;;;;41.80;5.57;;;;;;;16.11;nan;99814.38;6102894;23;20400;-92
2022/12/09 00:34:48;;;;;;;41.03;5.47;;;;;;;16.11;nan;99815.22;6078362;23;20948;-93
2022/12/09 00:37:16;;;;;;;41.03;6.00;;;;;;;16.10;nan;99812.72;6103056;23;20394;-91
2022/12/09 00:39:58;;;;;;;47.47;6.23;;;;;;;16.12;nan;99810.53;6078647;23;20900;-92
2022/12/09 00:42:46;;;;;;;42.37;6.70;;;;;;;16.11;nan;99814.38;6078645;23;20414;-92
2022/12/09 00:45:29;;;;;;;38.83;5.23;;;;;;;16.10;nan;99807.22;6079042;23;20394;-92
2022/12/09 00:47:57;;;;;;;57.60;8.30;;;;;;;16.09;nan;99808.28;6079211;23;20383;-92
2022/12/09 00:50:38;;;;;;;47.77;6.10;;;;;;;16.05;nan;99798.84;6078265;23;20482;-91
2022/12/09 00:53:07;;;;;;;37.33;4.83;;;;;;;16.05;nan;99799.69;6078665;23;20394;-92
2022/12/09 00:55:42;;;;;;;46.33;6.67;;;;;;;16.06;nan;99808.78;6078438;23;20445;-93
2022/12/09 00:58:11;;;;;;;43.73;5.13;;;;;;;16.05;nan;99798.84;6063823;23;20516;-92
2022/12/09 01:00:39;;;;;;;25.20;4.63;;;;;;;16.04;nan;99799.94;6083678;23;20401;-92
2022/12/09 01:03:23;;;;;;;25.87;4.47;;;;;;;16.02;nan;99794.69;6107202;23;20947;-91
2022/12/09 01:05:52;;;;;;;23.73;5.77;;;;;;;16.00;nan;99796.84;6107240;23;20412;-92
2022/12/09 01:08:20;;;;;;;36.77;5.27;;;;;;;16.04;nan;99797.19;6107618;23;20389;-92
2022/12/09 01:10:54;;;;;;;54.70;5.50;;;;;;;16.01;nan;99787.50;6084121;23;20393;-92
2022/12/09 01:13:23;;;;;;;44.40;6.17;;;;;;;16.00;nan;99779.47;6084297;23;20389;-92
2022/12/09 01:15:52;;;;;;;49.57;6.53;;;;;;;16.06;nan;99800.53;6083237;23;20421;-91
2022/12/09 01:18:30;;;;;;;40.80;5.70;;;;;;;16.05;nan;99793.34;6131746;23;20405;-92
2022/12/09 01:21:04;;;;;;;55.90;5.80;;;;;;;16.07;nan;99796.69;6083568;23;20871;-92
2022/12/09 01:23:33;;;;;;;42.23;5.07;;;;;;;16.06;nan;99806.03;6083523;23;20400;-93
2022/12/09 01:26:04;;;;;;;41.03;5.17;;;;;;;16.06;nan;99801.34;6083920;23;20382;-93
2022/12/09 01:28:32;;;;;;;37.00;5.40;;;;;;;16.02;nan;99788.34;6083742;23;20464;-94
2022/12/09 01:31:14;;;;;;;37.47;5.00;;;;;;;16.08;nan;99798.34;6083792;23;20413;-92
2022/12/09 01:33:48;;;;;;;35.40;5.53;;;;;;;16.05;nan;99779.56;6107238;23;20473;-92
2022/12/09 01:36:26;;;;;;;45.63;4.93;;;;;;;16.09;nan;99789.00;6083584;23;20404;-93
2022/12/09 01:39:06;;;;;;;35.37;6.80;;;;;;;16.09;nan;99781.56;6108141;23;20919;-92
2022/12/09 01:41:39;;;;;;;49.30;6.20;;;;;;;16.13;nan;99773.63;6083749;23;20385;-92
2022/12/09 01:44:25;;;;;;;49.87;5.93;;;;;;;16.18;nan;99770.91;6107307;23;20481;-92
2022/12/09 01:47:04;;;;;;;38.00;6.60;;;;;;;16.22;nan;99769.31;6107118;23;20409;-92
2022/12/09 01:49:46;;;;;;;38.53;6.20;;;;;;;16.20;nan;99758.56;6131638;23;20392;-92
2022/12/09 01:52:21;;;;;;;37.03;5.70;;;;;;;16.28;nan;99762.81;6108019;23;20879;-92
2022/12/09 01:55:03;;;;;;;51.00;6.20;;;;;;;16.27;nan;99743.75;6131034;23;20440;-92
2022/12/09 01:57:31;;;;;;;41.90;5.93;;;;;;;16.32;nan;99763.97;6131069;23;20401;-92
2022/12/09 02:00:50;;;;;;;39.77;5.00;;;;;;;16.36;nan;99767.03;6106821;23;20400;-93
2022/12/09 02:03:18;;;;;;;62.77;6.50;;;;;;;16.37;nan;99755.72;6154861;23;20888;-92
2022/12/09 02:05:45;;;;;;;46.53;5.00;;;;;;;16.38;nan;99749.13;6107531;23;20814;-92
2022/12/09 02:08:15;;;;;;;36.80;5.03;;;;;;;16.36;nan;99751.31;6084011;23;20524;-93
2022/12/09 02:11:07;;;;;;;41.17;6.30;;;;;;;16.40;nan;99746.94;6107029;23;20413;-93
2022/12/09 02:13:50;;;;;;;43.30;5.87;;;;;;;16.39;nan;99738.94;6155043;23;20420;-92
2022/12/09 02:16:20;;;;;;;42.60;6.07;;;;;;;16.37;nan;99736.44;6083747;23;20931;-91
2022/12/09 02:18:57;;;;;;;38.63;5.97;;;;;;;16.46;nan;99745.94;6083632;23;20409;-93
2022/12/09 02:21:45;;;;;;;37.03;5.93;;;;;;;16.45;nan;99730.47;6131833;23;20617;-93
2022/12/09 02:24:39;;;;;;;38.40;4.70;;;;;;;16.47;nan;99730.22;6130883;23;20408;-93
2022/12/09 02:27:17;;;;;;;39.07;5.10;;;;;;;16.47;nan;99725.53;6134695;23;20389;-92
2022/12/09 02:30:13;;;;;;;48.57;5.90;;;;;;;16.46;nan;99717.53;6106950;23;20393;-92
2022/12/09 02:33:14;;;;;;;49.23;6.53;;;;;;;16.48;nan;99715.34;6132756;23;20396;-92
2022/12/09 02:35:50;;;;;;;41.60;5.30;;;;;;;16.47;nan;99716.44;6131693;23;20504;-93
2022/12/09 02:38:31;;;;;;;54.27;6.67;;;;;;;16.45;nan;99707.56;6130866;23;20400;-93
2022/12/09 02:41:16;;;;;;;37.30;5.53;;;;;;;16.46;nan;99718.34;6084169;23;20400;-92
2022/12/09 02:44:09;;;;;;;43.60;5.73;;;;;;;16.44;nan;99708.66;6132707;23;20412;-92
2022/12/09 02:46:44;;;;;;;44.90;6.63;;;;;;;16.44;nan;99711.44;6108705;23;20919;-92
2022/12/09 02:49:14;;;;;;;43.07;5.43;;;;;;;16.46;nan;99725.78;6085542;23;20388;-91
2022/12/09 02:51:48;;;;;;;37.67;5.90;;;;;;;16.42;nan;99725.47;6084808;23;20997;-92
2022/12/09 02:54:17;;;;;;;40.50;5.23;;;;;;;16.44;nan;99730.72;6084710;23;20393;-91
2022/12/09 02:56:55;;;;;;;37.23;6.73;;;;;;;16.47;nan;99736.56;6084331;23;20408;-93
2022/12/09 02:59:23;;;;;;;38.23;5.87;;;;;;;16.50;nan;99735.22;6133866;23;20436;-92
2022/12/09 03:02:10;;;;;;;38.70;4.93;;;;;;;16.50;nan;99725.03;6114400;23;20475;-92
2022/12/09 03:04:40;;;;;;;46.33;6.60;;;;;;;16.53;nan;99723.69;6186798;23;20404;-91
2022/12/09 03:07:27;;;;;;;48.83;5.23;;;;;;;16.55;nan;99727.81;6113747;23;21005;-92
2022/12/09 03:10:16;;;;;;;43.17;5.50;;;;;;;16.52;nan;99722.84;6114851;23;20395;-92
2022/12/09 03:13:14;;;;;;;49.50;5.50;;;;;;;16.56;nan;99723.97;6114388;23;20518;-93
2022/12/09 03:16:13;;;;;;;43.00;6.77;;;;;;;16.64;nan;99722.72;6161859;23;20852;-93
2022/12/09 03:18:45;;;;;;;45.03;4.73;;;;;;;16.66;nan;99730.75;6186707;23;20384;-92
2022/12/09 03:21:20;;;;;;;43.43;5.97;;;;;;;16.63;nan;99728.47;6138777;23;20478;-91
2022/12/09 03:24:01;;;;;;;34.03;5.27;;;;;;;16.58;nan;99709.94;6114947;23;20494;-93
2022/12/09 03:26:39;;;;;;;30.60;5.20;;;;;;;16.68;nan;99703.75;6138216;23;20380;-92
2022/12/09 03:29:20;;;;;;;37.53;6.40;;;;;;;16.72;nan;99699.38;6138243;23;20395;-92
2022/12/09 03:31:59;;;;;;;44.93;6.50;;;;;;;16.76;nan;99700.50;6113963;23;20470;-92
2022/12/09 03:34:32;;;;;;;55.70;7.57;;;;;;;16.73;nan;99701.88;6162422;23;20391;-93
2022/12/09 03:36:59;;;;;;;53.10;7.03;;;;;;;16.74;nan;99695.22;6161548;23;20412;-92
2022/12/09 03:39:34;;;;;;;39.47;6.10;;;;;;;16.72;nan;99704.88;6137920;23;20392;-93
2022/12/09 03:42:11;;;;;;;34.13;5.10;;;;;;;16.74;nan;99691.66;6137520;23;20403;-92
2022/12/09 03:44:59;;;;;;;33.10;5.13;;;;;;;16.74;nan;99710.97;6137604;23;20391;-92
2022/12/09 03:47:33;;;;;;;39.13;5.30;;;;;;;16.71;nan;99700.47;6161875;23;20404;-91
2022/12/09 03:50:15;;;;;;;29.77;5.53;;;;;;;16.71;nan;99703.22;6137427;23;20531;-92
2022/12/09 03:53:14;;;;;;;30.47;5.53;;;;;;;16.66;nan;99706.75;6137252;23;20492;-93
2022/12/09 03:55:45;;;;;;;46.43;5.53;;;;;;;16.58;nan;99698.88;6162162;23;20507;-93
2022/12/09 03:58:13;;;;;;;54.33;6.20;;;;;;;16.56;nan;99690.03;6156847;23;20433;-93
2022/12/09 04:00:58;;;;;;;53.23;5.40;;;;;;;16.56;nan;99701.06;6132727;23;20405;-92
2022/12/09 04:03:42;;;;;;;45.90;5.50;;;;;;;16.57;nan;99695.28;6156523;23;20477;-92
2022/12/09 04:06:22;;;;;;;44.70;5.90;;;;;;;16.56;nan;99679.84;6156346;23;20460;-92
2022/12/09 04:08:55;;;;;;;32.00;5.10;;;;;;;16.53;nan;99657.47;6156260;23;20481;-92
2022/12/09 04:11:30;;;;;;;45.63;4.87;;;;;;;16.51;nan;99643.94;6087202;23;20416;-93
2022/12/09 04:13:59;;;;;;;46.20;9.60;;;;;;;16.49;nan;99631.50;6108259;23;20389;-93
2022/12/09 04:16:27;;;;;;;52.70;10.23;;;;;;;16.51;nan;99649.47;6131849;23;20951;-92
2022/12/09 04:18:56;;;;;;;43.00;6.60;;;;;;;16.51;nan;99649.47;6084270;23;20389;-93
2022/12/09 04:21:27;;;;;;;46.00;6.97;;;;;;;16.42;nan;99619.84;6132481;23;20508;-92
2022/12/09 04:24:03;;;;;;;56.63;6.97;;;;;;;16.53;nan;99646.44;6156221;23;20514;-91
2022/12/09 04:26:31;;;;;;;32.67;4.77;;;;;;;16.53;nan;99672.09;6132124;23;20911;-93
2022/12/09 04:29:10;;;;;;;48.63;6.33;;;;;;;16.57;nan;99664.94;6131808;23;20397;-92
2022/12/09 04:31:39;;;;;;;36.60;4.20;;;;;;;16.50;nan;99663.50;6132088;23;20389;-92
2022/12/09 04:34:07;;;;;;;40.23;3.97;;;;;;;16.46;nan;99679.75;6132200;23;20385;-92
2022/12/09 04:36:39;;;;;;;25.13;3.70;;;;;;;16.41;nan;99665.88;6155928;23;20653;-93
2022/12/09 04:39:06;;;;;;;19.20;3.60;;;;;;;16.30;nan;99666.88;6156104;23;20463;-93
2022/12/09 04:41:36;;;;;;;25.03;3.30;;;;;;;16.20;nan;99641.91;6107849;23;20385;-92
2022/12/09 04:44:19;;;;;;;37.20;3.93;;;;;;;16.26;nan;99662.97;6131779;23;20484;-92
2022/12/09 04:46:51;;;;;;;22.97;3.90;;;;;;;16.22;nan;99662.63;6155804;23;20468;-92
2022/12/09 04:49:35;;;;;;;25.63;3.60;;;;;;;16.23;nan;99666.22;6156360;23;20476;-92
2022/12/09 04:52:03;;;;;;;32.33;4.67;;;;;;;16.18;nan;99658.72;6155244;23;20464;-91
2022/12/09 04:54:32;;;;;;;40.40;4.40;;;;;;;16.13;nan;99650.41;6107880;23;20456;-91
2022/12/09 04:57:02;;;;;;;32.80;4.73;;;;;;;16.17;nan;99654.28;6132170;23;20572;-93
2022/12/09 04:59:31;;;;;;;28.23;4.77;;;;;;;16.18;nan;99660.63;6107132;23;20437;-91
2022/12/09 05:02:10;;;;;;;37.67;4.07;;;;;;;16.20;nan;99669.50;6107411;23;20397;-92
2022/12/09 05:05:00;;;;;;;29.27;4.33;;;;;;;16.20;nan;99652.94;6131539;23;20393;-93
2022/12/09 05:07:30;;;;;;;28.40;4.60;;;;;;;16.18;nan;99655.13;6155372;23;20424;-93
2022/12/09 05:09:59;;;;;;;43.03;6.37;;;;;;;16.15;nan;99645.47;6131971;23;20476;-93
2022/12/09 05:12:40;;;;;;;41.67;6.40;;;;;;;16.17;nan;99625.88;6107695;23;21027;-93
2022/12/09 05:15:27;;;;;;;50.13;11.07;;;;;;;16.21;nan;99618.78;6131626;23;20973;-93
2022/12/09 05:17:56;;;;;;;46.93;7.70;;;;;;;16.21;nan;99618.78;6107315;23;20415;-93
2022/12/09 05:20:28;;;;;;;46.00;6.00;;;;;;;16.23;nan;99622.94;6108293;23;20409;-92
2022/12/09 05:23:30;;;;;;;45.30;6.93;;;;;;;16.28;nan;99616.66;6131531;23;20389;-93
2022/12/09 05:26:07;;;;;;;31.63;5.93;;;;;;;16.27;nan;99612.22;6180182;23;20906;-92
2022/12/09 05:28:38;;;;;;;45.13;6.10;;;;;;;16.33;nan;99615.88;6131473;23;20393;-92
2022/12/09 05:31:13;;;;;;;44.50;5.83;;;;;;;16.30;nan;99606.22;6155695;23;20393;-92
2022/12/09 05:33:50;;;;;;;30.50;5.03;;;;;;;16.33;nan;99613.97;6131868;23;20950;-92
2022/12/09 05:36:26;;;;;;;36.03;3.63;;;;;;;16.32;nan;99614.22;6131446;23;20998;-92
2022/12/09 05:38:56;;;;;;;44.10;5.23;;;;;;;16.25;nan;99611.66;6131076;23;20906;-93
2022/12/09 05:41:30;;;;;;;29.77;4.23;;;;;;;16.24;nan;99607.22;6130949;23;20417;-92
2022/12/09 05:44:10;;;;;;;21.80;4.20;;;;;;;16.28;nan;99626.84;6131648;23;20385;-93
2022/12/09 05:46:53;;;;;;;25.03;4.43;;;;;;;16.24;nan;99621.03;6155422;23;20472;-92
2022/12/09 05:49:30;;;;;;;42.90;4.30;;;;;;;16.12;nan;99603.78;6155228;23;20895;-92
2022/12/09 05:52:04;;;;;;;42.97;5.30;;;;;;;16.15;nan;99617.91;6155338;23;20385;-92
2022/12/09 05:54:38;;;;;;;33.03;5.20;;;;;;;16.08;nan;99620.00;6131208;23;20887;-92
2022/12/09 05:57:06;;;;;;;41.63;5.17;;;;;;;16.17;nan;99628.66;6130417;23;20943;-91
2022/12/09 05:59:34;;;;;;;36.10;4.87;;;;;;;16.19;nan;99629.22;6105641;23;20508;-91
2022/12/09 06:02:05;;;;;;;35.63;6.33;;;;;;;16.17;nan;99621.22;6078600;23;20390;-91
2022/12/09 06:04:36;;;;;;;42.93;5.50;;;;;;;16.21;nan;99636.16;6102167;23;20418;-92
2022/12/09 06:07:04;;;;;;;40.87;6.33;;;;;;;16.24;nan;99626.53;6078260;23;20383;-92
2022/12/09 06:09:40;;;;;;;61.00;7.50;;;;;;;16.24;nan;99621.84;6078484;23;20928;-92
2022/12/09 06:12:15;;;;;;;32.87;5.40;;;;;;;16.29;nan;99607.28;6078811;23;20385;-93
2022/12/09 06:14:45;;;;;;;50.33;5.33;;;;;;;16.29;nan;99618.31;6077921;23;20480;-92
2022/12/09 06:17:12;;;;;;;47.23;6.40;;;;;;;16.36;nan;99624.44;6101713;23;20538;-91
2022/12/09 06:19:40;;;;;;;35.73;5.30;;;;;;;16.39;nan;99623.94;6102198;23;20719;-91
2022/12/09 06:22:08;;;;;;;38.00;5.90;;;;;;;16.42;nan;99615.16;6077764;23;20960;-91
2022/12/09 06:24:46;;;;;;;38.43;5.67;;;;;;;16.48;nan;99627.91;6054647;23;20907;-92
2022/12/09 06:27:20;;;;;;;37.80;8.40;;;;;;;16.48;nan;99621.56;6125849;23;20473;-93
2022/12/09 06:29:48;;;;;;;47.77;6.17;;;;;;;16.50;nan;99639.53;6101836;23;20881;-92
2022/12/09 06:32:17;;;;;;;63.17;7.13;;;;;;;16.52;nan;99636.50;6077822;23;20421;-92
2022/12/09 06:34:54;;;;;;;45.07;6.97;;;;;;;16.54;nan;99626.88;6079305;23;20477;-92
2022/12/09 06:37:24;;;;;;;43.27;7.17;;;;;;;16.53;nan;99632.66;6078239;23;20422;-93
2022/12/09 06:39:52;;;;;;;49.23;7.10;;;;;;;16.60;nan;99644.28;6102237;23;20470;-92
2022/12/09 06:42:25;;;;;;;48.07;5.87;;;;;;;16.63;nan;99651.22;6054378;23;20408;-92
2022/12/09 06:44:53;;;;;;;41.67;5.77;;;;;;;16.55;nan;99634.03;6101637;23;20408;-92
2022/12/09 06:47:22;;;;;;;50.90;9.97;;;;;;;16.57;nan;99645.63;6077919;23;20411;-93
2022/12/09 06:50:00;;;;;;;45.70;9.80;;;;;;;16.59;nan;99643.47;6078077;23;20406;-92
2022/12/09 06:52:36;;;;;;;50.57;6.87;;;;;;;16.58;nan;99644.56;5964865;23;20503;-91
2022/12/09 06:55:11;;;;;;;45.60;6.60;;;;;;;16.54;nan;99635.16;5986909;23;20421;-91
2022/12/09 06:57:39;;;;;;;41.30;7.37;;;;;;;16.55;nan;99642.31;5965154;23;20484;-93
2022/12/09 07:00:25;;;;;;;45.13;6.20;;;;;;;16.58;nan;99639.03;6019394;23;20400;-92
2022/12/09 07:03:05;;;;;;;45.27;7.80;;;;;;;16.61;nan;99639.59;6020076;23;20468;-92
2022/12/09 07:05:35;;;;;;;45.23;7.50;;;;;;;16.55;nan;99645.06;6043485;23;20422;-92
2022/12/09 07:08:09;;;;;;;46.93;7.17;;;;;;;16.55;nan;99647.81;5996359;23;20407;-92
2022/12/09 07:10:45;;;;;;;34.17;7.80;;;;;;;16.52;nan;99648.38;6045000;23;20855;-92
2022/12/09 07:13:28;;;;;;;36.73;5.97;;;;;;;16.52;nan;99656.66;6132705;23;20804;-92
2022/12/09 07:16:08;;;;;;;32.37;6.97;;;;;;;16.46;nan;99640.28;6154887;23;20504;-92
2022/12/09 07:18:38;;;;;;;48.33;9.47;;;;;;;16.48;nan;99651.91;6103812;23;20479;-92
2022/12/09 07:21:13;;;;;;;53.53;7.70;;;;;;;16.48;nan;99666.53;6126138;23;20473;-91
2022/12/09 07:24:06;;;;;;;41.93;6.77;;;;;;;16.51;nan;99682.56;6150894;23;20416;-92
2022/12/09 07:26:34;;;;;;;46.07;9.10;;;;;;;16.47;nan;99678.66;6151447;23;20868;-92
2022/12/09 07:29:11;;;;;;;40.73;6.83;;;;;;;16.51;nan;99693.59;6108443;23;20487;-92
2022/12/09 07:31:46;;;;;;;38.10;4.60;;;;;;;16.47;nan;99692.44;6157264;23;20784;-93
2022/12/09 07:34:17;;;;;;;42.67;5.27;;;;;;;16.39;nan;99683.78;6109746;23;20719;-92
2022/12/09 07:36:47;;;;;;;37.17;4.70;;;;;;;16.44;nan;99694.88;6155987;23;20440;-91
2022/12/09 07:39:16;;;;;;;30.57;5.60;;;;;;;16.50;nan;99707.66;6044577;23;20426;-91
2022/12/09 07:41:55;;;;;;;26.43;4.00;;;;;;;16.47;nan;99708.16;6021206;23;20490;-90
2022/12/09 07:44:27;;;;;;;38.33;6.40;;;;;;;16.49;nan;99712.31;5998375;23;20836;-93
2022/12/09 07:46:56;;;;;;;36.20;5.53;;;;;;;16.52;nan;99720.09;6021546;23;20730;-93
2022/12/09 07:49:25;;;;;;;28.60;4.53;;;;;;;16.57;nan;99720.13;6044652;23;20423;-91
2022/12/09 07:51:54;;;;;;;52.77;10.20;;;;;;;16.57;nan;99725.66;6020785;23;20419;-91
2022/12/09 07:54:22;;;;;;;41.10;6.97;;;;;;;16.54;nan;99704.13;6044274;23;20972;-92
2022/12/09 07:56:50;;;;;;;38.37;4.90;;;;;;;16.57;nan;99692.53;6022387;23;20767;-92
2022/12/09 07:59:18;;;;;;;42.97;5.60;;;;;;;16.65;nan;99698.72;6088333;23;20441;-91
2022/12/09 08:01:53;;;;;;;41.33;5.47;;;;;;;16.67;nan;99677.25;6127463;23;20964;-93
2022/12/09 08:04:30;;;;;;;34.80;4.77;;;;;;;16.74;nan;99692.47;6080655;23;20414;-92
2022/12/09 08:07:07;;;;;;;29.83;5.90;;;;;;;16.83;nan;99690.09;6079398;23;20408;-92
2022/12/09 08:09:38;;;;;;;35.70;6.43;;;;;;;16.84;nan;99691.75;6055603;23;20393;-92
2022/12/09 08:12:07;;;;;;;45.40;7.77;;;;;;;16.81;nan;99690.34;6015732;23;20521;-92
2022/12/09 08:14:36;;;;;;;41.33;8.30;;;;;;;16.88;nan;99690.16;5993043;23;20472;-92
2022/12/09 08:17:03;;;;;;;46.67;6.63;;;;;;;16.90;nan;99679.69;5969088;23;20591;-91
2022/12/09 08:19:35;;;;;;;35.33;5.23;;;;;;;16.90;nan;99687.97;5993110;23;20943;-91
2022/12/09 08:22:09;;;;;;;36.17;5.67;;;;;;;16.97;nan;99688.56;5992674;23;20381;-91
2022/12/09 08:24:48;;;;;;;36.00;5.10;;;;;;;16.93;nan;99691.00;5969854;23;21012;-91
2022/12/09 08:27:44;;;;;;;26.73;4.17;;;;;;;17.01;nan;99695.22;5993755;23;20411;-95
2022/12/09 08:30:16;;;;;;;37.23;5.00;;;;;;;17.05;nan;99698.31;6080537;23;20425;-92
2022/12/09 08:32:52;;;;;;;60.97;7.10;;;;;;;17.07;nan;99691.44;6079312;23;20714;-90
2022/12/09 08:35:22;;;;;;;35.77;6.20;;;;;;;17.10;nan;99690.09;6078449;23;20456;-91
2022/12/09 08:38:02;;;;;;;35.60;5.07;;;;;;;17.10;nan;99676.28;6078825;23;20433;-91
2022/12/09 08:40:37;;;;;;;51.33;9.90;;;;;;;17.14;nan;99703.06;6103165;23;20724;-91
2022/12/09 08:43:05;;;;;;;44.73;7.77;;;;;;;17.16;nan;99719.38;6079272;23;20947;-93
2022/12/09 08:45:41;;;;;;;57.57;12.47;;;;;;;17.17;nan;99732.94;6079124;23;20394;-91
2022/12/09 08:48:10;;;;;;;38.63;6.33;;;;;;;17.14;nan;99725.16;6079408;23;20710;-92
2022/12/09 08:50:45;;;;;;;38.53;5.77;;;;;;;17.18;nan;99737.38;6056544;23;20469;-92
2022/12/09 08:53:45;;;;;;;40.70;7.20;;;;;;;17.19;nan;99739.03;6077837;23;20468;-93
2022/12/09 08:56:30;;;;;;;40.23;5.60;;;;;;;17.16;nan;99750.59;6126946;23;20493;-92
2022/12/09 08:59:02;;;;;;;32.93;4.10;;;;;;;17.13;nan;99740.06;6102197;23;20492;-94
2022/12/09 09:01:43;;;;;;;38.03;5.77;;;;;;;17.09;nan;99730.66;6079555;23;20394;-92
2022/12/09 09:04:40;;;;;;;32.17;4.00;;;;;;;17.11;nan;99735.94;6078623;23;20946;-92
2022/12/09 09:07:24;;;;;;;35.13;5.53;;;;;;;17.08;nan;99740.03;6079345;23;20394;-92
2022/12/09 09:13:24;;;;;;;42.87;6.00;;;;;;;17.03;nan;99733.63;6127721;23;20815;-94
2022/12/09 09:19:50;;;;;;;25.40;3.47;;;;;;;17.15;nan;99765.50;6128064;23;20397;-93
2022/12/09 09:26:08;;;;;;;36.03;5.20;;;;;;;17.27;nan;99779.16;6127280;23;20369;-93
2022/12/09 09:28:44;;;;;;;33.73;5.00;;;;;;;17.31;nan;99762.91;5964867;23;20392;-93
2022/12/09 09:31:52;;;;;;;35.73;4.00;;;;;;;17.37;nan;99792.22;5942238;23;20408;-90
2022/12/09 09:38:32;;;;;;;31.27;3.60;;;;;;;17.37;nan;99801.34;6010300;23;20418;-95
2022/12/09 09:41:00;;;;;;;24.20;3.90;;;;;;;17.30;nan;99797.13;5986039;23;20412;-90
2022/12/09 09:43:32;;;;;;;24.83;5.03;;;;;;;17.27;nan;99802.09;5940554;23;20628;-90
2022/12/09 09:46:02;;;;;;;31.17;5.70;;;;;;;17.27;nan;99799.31;5986054;23;20480;-90
2022/12/09 09:48:32;;;;;;;22.77;5.00;;;;;;;17.29;nan;99787.19;5941811;23;20511;-90
2022/12/09 09:51:27;;;;;;;20.93;3.10;;;;;;;17.24;nan;99791.56;5964331;23;20505;-92
2022/12/09 09:53:56;;;;;;;28.30;4.53;;;;;;;17.27;nan;99785.50;6081304;23;20493;-93
2022/12/09 09:56:59;;;;;;;24.13;5.40;;;;;;;17.35;nan;99794.41;6080480;23;20444;-93
2022/12/09 09:59:48;;;;;;;32.87;5.27;;;;;;;17.33;nan;99805.72;6101834;23;20553;-92
2022/12/09 10:02:25;;;;;;;29.13;4.97;;;;;;;17.32;nan;99808.75;6056830;23;20412;-92
2022/12/09 10:05:03;;;;;;;31.30;5.07;;;;;;;17.29;nan;99809.28;6100959;23;20476;-92
2022/12/09 10:07:46;;;;;;;31.77;5.10;;;;;;;17.21;nan;99797.59;6009707;23;20544;-92
2022/12/09 10:10:35;;;;;;;37.40;5.27;;;;;;;17.24;nan;99805.38;5964571;23;20497;-92
2022/12/09 10:13:38;;;;;;;25.47;5.37;;;;;;;17.20;nan;99811.66;6009692;23;20382;-93
2022/12/09 10:16:25;;;;;;;23.10;4.23;;;;;;;17.21;nan;99814.16;5964105;23;20602;-92
2022/12/09 10:18:58;;;;;;;24.03;4.50;;;;;;;17.20;nan;99823.53;5966755;23;20569;-92
2022/12/09 10:21:37;;;;;;;25.20;3.23;;;;;;;17.22;nan;99817.75;6009760;23;20409;-92
2022/12/09 10:24:28;;;;;;;18.73;2.80;;;;;;;17.31;nan;99815.38;5986557;23;20405;-92
2022/12/09 10:27:25;;;;;;;18.40;4.13;;;;;;;17.33;nan;99821.44;5971398;23;20967;-92
2022/12/09 10:30:00;;;;;;;26.43;3.23;;;;;;;17.36;nan;99815.41;6038589;23;20396;-92
2022/12/09 10:32:37;;;;;;;27.33;3.90;;;;;;;17.41;nan;99812.72;6067626;23;20412;-92
2022/12/09 10:35:17;;;;;;;31.33;4.20;;;;;;;17.53;nan;99808.66;6077732;23;20410;-92
2022/12/09 10:37:53;;;;;;;41.03;4.53;;;;;;;17.80;nan;99810.59;6078208;23;20441;-92
2022/12/09 10:40:48;;;;;;;23.33;3.73;;;;;;;18.01;nan;99808.81;6126041;23;20410;-93
2022/12/09 10:43:34;;;;;;;29.70;4.13;;;;;;;18.16;nan;99808.91;6149196;23;20797;-93
2022/12/09 10:46:25;;;;;;;30.97;4.23;;;;;;;;;;6081018;23;20465;-92
2022/12/09 10:49:02;;;;;;;35.60;5.97;;;;;;;;;;6126958;23;20374;-92
2022/12/09 10:51:40;;;;;;;31.60;4.63;;;;;;;;;;6127119;23;20778;-91
2022/12/09 10:54:19;;;;;;;25.67;4.67;;;;;;;;;;6125758;23;20472;-91
2022/12/09 10:57:23;;;;;;;25.80;3.67;;;;;;;;;;6125761;23;20448;-92
2022/12/09 11:00:00;;;;;;;26.43;3.93;;;;;;;;;;6069197;23;20525;-92
2022/12/09 11:02:31;;;;;;;27.47;4.47;;;;;;;;;;6072879;23;20921;-91
2022/12/09 11:05:37;;;;;;;26.37;4.07;;;;;;;;;;6073985;23;20387;-92
2022/12/09 11:08:05;;;;;;;27.43;4.53;;;;;;;;;;5983648;24;20406;-92
2022/12/09 11:10:45;;;;;;;19.07;3.87;;;;;;;;;;5960420;24;20897;-91
2022/12/09 11:13:15;;;;;;;25.87;3.40;;;;;;;;;;5960769;24;20485;-92
2022/12/09 11:15:43;;;;;;;23.50;3.30;;;;;;;;;;5937719;24;20509;-91
2022/12/09 11:18:33;;;;;;;23.23;3.63;;;;;;;;;;5959985;24;20442;-91
2022/12/09 11:21:04;;;;;;;17.23;3.03;;;;;;;;;;5932912;24;20457;-93
2022/12/09 11:23:34;;;;;;;13.13;3.03;;;;;;;;;;5933061;24;20478;-91
2022/12/09 11:26:04;;;;;;;23.53;2.80;;;;;;;;;;5932823;24;20415;-92
2022/12/09 11:28:36;;;;;;;23.97;3.60;;;;;;;;;;5937897;24;20600;-91
2022/12/09 11:31:14;;;;;;;12.83;2.57;;;;;;;;;;5959766;24;20826;-91
2022/12/09 11:34:03;;;;;;;28.40;3.40;;;;;;;;;;5979376;23;20484;-91
2022/12/09 11:36:34;;;;;;;23.73;3.17;;;;;;;;;;5965381;23;20504;-92
2022/12/09 11:39:16;;;;;;;15.50;2.60;;;;;;;;;;6033038;23;20425;-91
2022/12/09 11:44:47;;;;;;;22.90;2.90;;;;;;;;;;6127592;23;20410;-92
2022/12/09 11:47:28;;;;;;;18.37;2.73;;;;;;;;;;6103949;23;20382;-92
2022/12/09 11:50:31;;;;;;;19.63;3.00;;;;;;;;;;6128567;23;20410;-92
2022/12/09 11:53:11;;;;;;;18.40;2.50;;;;;;;;;;6127434;23;20389;-92
2022/12/09 11:55:42;;;;;;;14.00;2.07;;;;;;;;;;6127213;23;20417;-92
2022/12/09 11:58:11;;;;;;;19.23;2.80;;;;;;;;;;6136865;23;20444;-92
2022/12/09 12:00:42;;;;;;;15.17;2.10;;;;;;;;;;6161720;23;20404;-92
2022/12/09 12:03:26;;;;;;;12.03;1.83;;;;;;;;;;6137190;23;20435;-92
2022/12/09 12:05:54;;;;;;;15.77;3.00;;;;;;;;;;6161678;23;20400;-92
2022/12/09 12:08:45;;;;;;;24.80;4.57;;;;;;;;;;6162220;23;20397;-92
2022/12/09 12:11:22;;;;;;;28.60;4.30;;;;;;;;;;6185510;23;20404;-92
2022/12/09 12:13:53;;;;;;;15.37;2.97;;;;;;;;;;6161718;23;20466;-91
2022/12/09 12:16:36;;;;;;;16.53;2.57;;;;;;;;;;6161798;23;20415;-92
2022/12/09 12:19:07;;;;;;;19.63;2.67;;;;;;;;;;6186921;23;20701;-92
2022/12/09 12:21:41;;;;;;;16.60;2.37;;;;;;;;;;6185961;23;20741;-91
2022/12/09 12:24:23;;;;;;;24.30;2.80;;;;;;;;;;6186814;23;20368;-91
2022/12/09 12:26:57;;;;;;;21.83;3.60;;;;;;;;;;6161423;23;20499;-92
2022/12/09 12:29:25;;;;;;;21.33;3.27;;;;;;;;;;6162872;23;20837;-91
2022/12/09 12:31:59;;;;;;;17.97;3.40;;;;;;;;;;6186334;23;20467;-91
2022/12/09 12:34:35;;;;;;;19.20;2.87;;;;;;;;;;6162191;23;20483;-91
2022/12/09 12:37:17;;;;;;;17.33;2.67;;;;;;;;;;6185987;23;20498;-91
2022/12/09 12:39:54;;;;;;;22.73;2.90;;;;;;;;;;6162180;23;20731;-92
2022/12/09 12:42:41;;;;;;;11.30;2.00;;;;;;;;;;6185726;23;20912;-91
2022/12/09 12:48:03;;;;;;;23.53;3.27;;;;;;;;;;6187529;23;20376;-92
2022/12/09 12:50:53;;;;;;;21.40;2.57;;;;;;;;;;6161599;23;20387;-93
2022/12/09 12:53:52;;;;;;;12.30;2.33;;;;;;;;;;6186043;23;20384;-91
2022/12/09 12:56:27;;;;;;;17.00;2.20;;;;;;;;;;6186346;23;20403;-92
2022/12/09 12:59:02;;;;;;;19.27;2.83;;;;;;;;;;6160713;23;20830;-92
2022/12/09 13:01:51;;;;;;;17.50;2.40;;;;;;;;;;6161773;23;20412;-92
2022/12/09 13:04:38;;;;;;;26.50;2.33;;;;;;;;;;6161076;23;20411;-92
2022/12/09 13:07:21;;;;;;;16.17;1.80;;;;;;;;;;6185636;23;20407;-91
2022/12/09 13:09:55;;;;;;;14.00;2.20;;;;;;;;;;6185610;23;20894;-92
2022/12/09 13:15:23;;;;;;;16.70;2.77;;;;;;;;;;6165027;23;20408;-92
2022/12/09 13:18:04;;;;;;;12.90;2.17;;;;;;;;;;6185447;23;20436;-92
2022/12/09 13:20:42;;;;;;;13.23;2.30;;;;;;;;;;6185931;23;20463;-91
2022/12/09 13:26:17;;;;;;;15.77;2.27;;;;;;;;;;6186939;23;20740;-93